createdAt,value
2019-04-28T00:00:51.256Z,10.05
2019-04-28T00:05:45.192Z,9.96
2019-04-28T00:10:39.284Z,10.06
2019-04-28T00:15:34.520Z,10.01
2019-04-28T00:20:31.102Z,9.94
2019-04-28T00:25:26.965Z,9.91
2019-04-28T00:30:21.734Z,9.89
2019-04-28T00:35:15.837Z,9.95
2019-04-28T00:40:11.135Z,9.90
2019-04-28T00:45:06.690Z,9.90
2019-04-28T00:50:02.150Z,10.01
2019-04-28T00:54:56.332Z,9.95
2019-04-28T00:59:57.815Z,10.04
2019-04-28T01:04:46.158Z,10.06
2019-04-28T01:09:41.632Z,9.91
2019-04-28T01:14:35.806Z,9.94
2019-04-28T01:19:31.669Z,9.88
2019-04-28T01:24:25.722Z,9.92
2019-04-28T01:29:19.789Z,9.78
2019-04-28T01:34:20.420Z,9.88
2019-04-28T01:39:14.602Z,9.99
2019-04-28T01:44:10.212Z,9.91
2019-04-28T01:49:04.337Z,9.73
2019-04-28T01:54:00.123Z,9.72
2019-04-28T01:58:54.172Z,9.81
2019-04-28T02:03:50.154Z,9.71
2019-04-28T02:08:44.188Z,9.79
2019-04-28T02:13:39.758Z,9.82
2019-04-28T02:18:33.872Z,9.94
2019-04-28T02:23:29.940Z,9.82
2019-04-28T02:28:24.020Z,9.74
2019-04-28T02:33:17.987Z,9.88
2019-04-28T02:38:11.949Z,9.71
2019-04-28T02:43:06.007Z,9.86
2019-04-28T02:48:01.890Z,9.77
2019-04-28T02:53:10.984Z,9.76
2019-04-28T02:58:05.239Z,9.76
2019-04-28T03:03:01.422Z,9.62
2019-04-28T03:07:55.193Z,9.69
2019-04-28T03:12:51.773Z,9.74
2019-04-28T03:17:45.424Z,9.82
2019-04-28T03:22:40.842Z,9.75
2019-04-28T03:27:37.197Z,9.69
2019-04-28T03:32:45.475Z,9.75
2019-04-28T03:37:31.934Z,9.54
2019-04-28T03:42:25.933Z,9.69
2019-04-28T03:47:21.122Z,9.70
2019-04-28T03:52:15.518Z,9.79
2019-04-28T03:57:11.367Z,9.66
2019-04-28T04:02:05.331Z,9.68
2019-04-28T04:07:01.490Z,9.72
2019-04-28T04:12:15.227Z,9.68
2019-04-28T04:17:14.100Z,9.51
2019-04-28T04:22:10.158Z,9.46
2019-04-28T04:27:04.014Z,9.46
2019-04-28T04:32:13.822Z,9.43
2019-04-28T04:36:54.001Z,9.43
2019-04-28T04:41:50.223Z,9.45
2019-04-28T04:46:43.824Z,9.53
2019-04-28T04:51:40.710Z,9.69
2019-04-28T04:56:34.168Z,9.72
2019-04-28T05:01:40.819Z,9.63
2019-04-28T05:06:36.868Z,9.75
2019-04-28T05:11:30.801Z,9.56
2019-04-28T05:16:24.758Z,9.49
2019-04-28T05:21:19.225Z,9.53
2019-04-28T05:26:14.581Z,9.40
2019-04-28T05:31:13.519Z,9.42
2019-04-28T05:36:05.101Z,9.65
2019-04-28T05:41:02.344Z,9.43
2019-04-28T05:45:54.983Z,9.60
2019-04-28T05:50:50.946Z,9.90
2019-04-28T05:55:46.868Z,9.85
2019-04-28T06:00:42.744Z,9.86
2019-04-28T06:05:36.803Z,9.84
2019-04-28T06:10:30.757Z,9.91
2019-04-28T06:15:24.692Z,9.75
2019-04-28T06:20:20.110Z,10.00
2019-04-28T06:25:14.209Z,10.02
2019-04-28T06:30:08.370Z,10.21
2019-04-28T06:35:04.425Z,10.22
2019-04-28T06:39:58.385Z,10.38
2019-04-28T06:44:52.434Z,10.42
2019-04-28T06:49:46.395Z,10.40
2019-04-28T06:54:40.379Z,10.85
2019-04-28T06:59:34.340Z,10.61
2019-04-28T07:04:28.307Z,10.63
2019-04-28T07:09:22.397Z,10.52
2019-04-28T07:14:16.343Z,10.73
2019-04-28T07:19:10.318Z,10.85
2019-04-28T07:24:04.411Z,10.72
2019-04-28T07:28:58.730Z,10.76
2019-04-28T07:33:52.902Z,10.91
2019-04-28T07:38:46.920Z,11.23
2019-04-28T07:43:40.892Z,11.51
2019-04-28T07:48:35.045Z,11.67
2019-04-28T07:53:37.744Z,11.57
2019-04-28T07:58:31.726Z,11.94
2019-04-28T08:03:25.781Z,11.80
2019-04-28T08:08:19.808Z,11.88
2019-04-28T08:13:13.806Z,12.07
2019-04-28T08:18:07.979Z,11.61
2019-04-28T08:23:01.991Z,11.64
2019-04-28T08:27:56.008Z,11.73
2019-04-28T08:33:01.168Z,11.88
2019-04-28T08:37:55.179Z,12.28
2019-04-28T08:42:49.301Z,12.35
2019-04-28T08:47:43.294Z,13.05
2019-04-28T08:52:37.463Z,12.58
2019-04-28T08:57:31.700Z,12.76
2019-04-28T09:02:25.768Z,13.31
2019-04-28T09:07:19.952Z,13.73
2019-04-28T09:12:13.909Z,13.83
2019-04-28T09:17:08.009Z,13.72
2019-04-28T09:22:02.091Z,13.48
2019-04-28T09:26:56.061Z,13.41
2019-04-28T09:31:50.162Z,13.23
2019-04-28T09:36:44.232Z,12.35
2019-04-28T09:41:40.273Z,12.26
2019-04-28T09:46:36.265Z,12.51
2019-04-28T09:51:30.331Z,13.29
2019-04-28T09:56:24.836Z,13.90
2019-04-28T10:01:19.007Z,14.13
2019-04-28T10:06:12.971Z,13.18
2019-04-28T10:11:07.070Z,12.60
2019-04-28T10:16:01.259Z,12.62
2019-04-28T10:20:55.386Z,12.82
2019-04-28T10:25:49.491Z,13.01
2019-04-28T10:30:43.665Z,13.43
2019-04-28T10:35:37.707Z,14.98
2019-04-28T10:40:36.904Z,15.51
2019-04-28T10:45:33.161Z,15.41
2019-04-28T10:50:27.179Z,15.77
2019-04-28T10:55:21.270Z,15.43
2019-04-28T11:00:17.267Z,16.44
2019-04-28T11:05:16.155Z,15.18
2019-04-28T11:10:18.101Z,13.98
2019-04-28T11:15:14.392Z,14.10
2019-04-28T11:20:08.782Z,14.42
2019-04-28T11:25:05.017Z,15.88
2019-04-28T11:29:58.996Z,16.63
2019-04-28T11:35:00.744Z,16.96
2019-04-28T11:39:54.740Z,16.47
2019-04-28T11:44:48.832Z,16.67
2019-04-28T11:49:42.833Z,15.53
2019-04-28T11:54:36.936Z,17.39
2019-04-28T11:59:30.900Z,20.27
2019-04-28T12:04:25.292Z,19.68
2019-04-28T12:09:26.273Z,20.58
2019-04-28T12:14:22.140Z,18.46
2019-04-28T12:19:18.040Z,20.08
2019-04-28T12:24:12.157Z,21.47
2019-04-28T12:29:06.372Z,19.88
2019-04-28T12:34:00.448Z,19.33
2019-04-28T12:38:54.474Z,18.75
2019-04-28T12:43:48.456Z,17.25
2019-04-28T12:48:45.324Z,16.35
2019-04-28T12:53:39.409Z,15.38
2019-04-28T12:58:33.497Z,15.05
2019-04-28T13:03:47.589Z,14.65
2019-04-28T13:08:41.555Z,14.56
2019-04-28T13:13:35.549Z,14.62
2019-04-28T13:18:29.544Z,14.20
2019-04-28T13:23:23.567Z,14.14
2019-04-28T13:28:17.657Z,12.70
2019-04-28T13:33:11.767Z,12.43
2019-04-28T13:38:05.858Z,13.02
2019-04-28T13:42:59.989Z,13.24
2019-04-28T13:47:54.076Z,13.60
2019-04-28T13:52:48.063Z,14.17
2019-04-28T13:57:42.412Z,14.25
2019-04-28T14:02:44.932Z,14.17
2019-04-28T14:07:39.268Z,14.67
2019-04-28T14:12:33.354Z,14.90
2019-04-28T14:17:27.327Z,14.93
2019-04-28T14:22:21.375Z,15.45
2019-04-28T14:27:15.508Z,16.00
2019-04-28T14:32:09.442Z,16.87
2019-04-28T14:37:03.573Z,17.47
2019-04-28T14:41:57.528Z,20.33
2019-04-28T14:46:51.568Z,23.14
2019-04-28T14:51:45.553Z,20.22
2019-04-28T14:56:39.648Z,18.57
2019-04-28T15:01:50.720Z,17.41
2019-04-28T15:06:55.516Z,17.48
2019-04-28T15:11:44.583Z,18.07
2019-04-28T15:16:38.544Z,18.26
2019-04-28T15:21:32.727Z,30.73
2019-04-28T15:26:26.653Z,34.95
2019-04-28T15:31:20.650Z,37.17
2019-04-28T15:36:14.763Z,36.09
2019-04-28T15:41:20.945Z,30.99
2019-04-28T15:46:04.809Z,30.28
2019-04-28T15:50:58.831Z,31.47
2019-04-28T15:55:54.718Z,34.26
2019-04-28T16:00:48.872Z,33.73
2019-04-28T16:05:42.866Z,29.39
2019-04-28T16:10:36.868Z,28.74
2019-04-28T16:15:30.868Z,27.35
2019-04-28T16:20:24.953Z,25.04
2019-04-28T16:25:18.943Z,23.79
2019-04-28T16:30:13.256Z,22.39
2019-04-28T16:35:07.431Z,22.50
2019-04-28T16:40:01.839Z,20.87
2019-04-28T16:44:56.493Z,17.54
2019-04-28T16:49:51.010Z,16.32
2019-04-28T16:54:47.189Z,16.25
2019-04-28T16:59:46.423Z,16.09
2019-04-28T17:04:40.623Z,16.12
2019-04-28T17:09:34.763Z,15.76
2019-04-28T17:14:28.722Z,15.48
2019-04-28T17:19:22.814Z,15.33
2019-04-28T17:24:16.839Z,15.25
2019-04-28T17:29:10.822Z,14.46
2019-04-28T17:34:04.961Z,14.44
2019-04-28T17:38:58.924Z,14.12
2019-04-28T17:43:52.952Z,14.08
2019-04-28T17:48:57.767Z,13.96
2019-04-28T17:53:51.854Z,13.85
2019-04-28T17:58:45.965Z,13.44
2019-04-28T18:03:58.635Z,13.24
2019-04-28T18:08:53.027Z,13.11
2019-04-28T18:13:47.165Z,12.89
2019-04-28T18:18:43.264Z,12.71
2019-04-28T18:23:37.277Z,12.72
2019-04-28T18:28:31.237Z,12.60
2019-04-28T18:33:30.142Z,12.38
2019-04-28T18:38:35.202Z,12.31
2019-04-28T18:43:44.999Z,12.23
2019-04-28T18:48:39.184Z,12.16
2019-04-28T18:53:33.232Z,12.01
2019-04-28T18:58:27.373Z,11.99
2019-04-28T19:03:21.656Z,11.87
2019-04-28T19:08:20.563Z,11.72
2019-04-28T19:13:31.749Z,11.54
2019-04-28T19:18:36.975Z,11.33
2019-04-28T19:23:31.045Z,11.23
2019-04-28T19:28:25.087Z,11.17
2019-04-28T19:33:19.076Z,11.07
2019-04-28T19:38:13.088Z,10.96
2019-04-28T19:43:07.092Z,10.86
2019-04-28T19:48:01.165Z,10.75
2019-04-28T19:52:56.583Z,10.67
2019-04-28T19:57:55.563Z,10.67
2019-04-28T20:02:49.640Z,10.43
2019-04-28T20:07:43.653Z,10.42
2019-04-28T20:12:37.725Z,10.34
2019-04-28T20:17:31.830Z,10.20
2019-04-28T20:22:26.145Z,10.12
2019-04-28T20:27:20.154Z,9.99
2019-04-28T20:32:14.127Z,10.04
2019-04-28T20:37:12.900Z,10.01
2019-04-28T20:42:27.723Z,9.75
2019-04-28T20:47:21.697Z,9.77
2019-04-28T20:52:15.696Z,9.58
2019-04-28T20:57:09.701Z,9.66
2019-04-28T21:02:03.903Z,9.60
2019-04-28T21:06:57.869Z,9.60
2019-04-28T21:11:51.906Z,9.55
2019-04-28T21:16:45.829Z,9.39
2019-04-28T21:21:39.825Z,9.27
2019-04-28T21:26:33.907Z,9.23
2019-04-28T21:31:27.991Z,9.20
2019-04-28T21:36:22.084Z,9.13
2019-04-28T21:41:16.278Z,9.04
2019-04-28T21:46:18.293Z,9.04
2019-04-28T21:51:12.598Z,8.88
2019-04-28T21:56:06.707Z,8.89
2019-04-28T22:01:00.972Z,8.95
2019-04-28T22:05:55.043Z,8.79
2019-04-28T22:10:49.385Z,8.44
2019-04-28T22:15:43.355Z,8.39
2019-04-28T22:20:37.334Z,8.41
2019-04-28T22:25:31.415Z,8.27
2019-04-28T22:30:25.587Z,8.29
2019-04-28T22:35:19.747Z,8.30
2019-04-28T22:40:13.924Z,8.34
2019-04-28T22:45:08.741Z,8.31
2019-04-28T22:50:07.195Z,8.04
2019-04-28T22:55:02.771Z,8.08
2019-04-28T22:59:58.658Z,7.96
2019-04-28T23:04:54.624Z,7.98
2019-04-28T23:09:48.725Z,7.92
2019-04-28T23:14:42.684Z,7.88
2019-04-28T23:19:38.580Z,7.71
2019-04-28T23:24:32.536Z,7.56
2019-04-28T23:29:26.704Z,7.68
2019-04-28T23:34:20.769Z,7.62
2019-04-28T23:39:14.771Z,7.54
2019-04-28T23:44:08.743Z,7.51
2019-04-28T23:49:02.811Z,7.36
2019-04-28T23:54:04.874Z,7.35
2019-04-28T23:58:58.850Z,7.33
